Archival Weather

Heathrow

London, United Kingdom (EGLL)

Report from: Wednesday, December 6, 2023 10:20 AM GMT
Current time: Saturday, March 2, 2024 10:07 AM GMT

Current weather – Weather history – Daily summaries
Weather forecast

Temperature4.0°C (39.2°F)
Dew point2.0°C (35.6°F)
Winds 2 kts (1 m/s, 2.3 mph) Vrb
Winds variableWinds variable
Visibility6.2 mi. (10 km)
Clouds Sky clear
Altimeter30.06 in.Hg (1018 mB)
Relative humidity87 %
Density altitude-1,389 ft. (-423 m)
Remarks Fully automated report
No clouds detected
Flight conditions Visual Meteorological Conditions
Raw dataEGLL 061020Z AUTO VRB02KT 9999 NCD 04/02 Q1018
An error has occurred. This application may no longer respond until reloaded. Reload 🗙